Austin, Texas
Traffic Map
Current Weather Conditions
Austin, Texas
Clear
Clear
76°
Feels Like: 76°
Wind Chill: 76° Ceiling: Unl
Heat Index: 76° Visibility: 10mi
Dew Point: 73° Wind: 0mph
Humidity: 91% Direction: ° ()
Pressure: 30.02in Gusts: 0mph
Raw Report DataKATT 231051Z AUTO 00000KT 10SM CLR 24/23 A3002 RMK AO2 SLP149 T02440228
Traffic Incident Summary
Active as of:
Severity:
Category:
InformationThere was an issue retrieving the traffic information for this location. Please try a different location or try again shortly.
Advertisements
Track Severe Weather on mobile